createdAt,value
2022-12-31T00:00:48.087Z,8.30
2022-12-31T00:03:51.839Z,9.30
2022-12-31T00:06:56.039Z,8.35
2022-12-31T00:09:58.939Z,8.43
2022-12-31T00:13:01.787Z,8.10
2022-12-31T00:16:12.294Z,7.95
2022-12-31T00:19:15.454Z,8.15
2022-12-31T00:22:19.777Z,8.43
2022-12-31T00:25:22.669Z,7.82
2022-12-31T00:28:25.491Z,8.73
2022-12-31T00:31:30.293Z,8.32
2022-12-31T00:34:33.088Z,8.00
2022-12-31T00:37:37.735Z,8.10
2022-12-31T00:40:40.775Z,8.48
2022-12-31T00:43:44.164Z,8.43
2022-12-31T00:46:47.002Z,8.52
2022-12-31T00:49:49.835Z,8.27
2022-12-31T00:52:54.017Z,8.88
2022-12-31T00:56:02.150Z,8.82
2022-12-31T00:59:05.390Z,7.72
2022-12-31T01:02:08.446Z,8.63
2022-12-31T01:05:11.408Z,8.95
2022-12-31T01:08:15.621Z,8.90
2022-12-31T01:11:23.087Z,8.52
2022-12-31T01:14:25.962Z,9.05
2022-12-31T01:17:28.948Z,7.18
2022-12-31T01:20:31.841Z,7.78
2022-12-31T01:23:36.559Z,8.55
2022-12-31T01:26:40.344Z,8.77
2022-12-31T01:29:43.195Z,7.45
2022-12-31T01:32:46.009Z,7.65
2022-12-31T01:35:49.143Z,9.20
2022-12-31T01:38:54.174Z,7.55
2022-12-31T01:41:57.000Z,8.05
2022-12-31T01:44:59.955Z,7.60
2022-12-31T01:48:02.975Z,7.45
2022-12-31T01:51:08.868Z,8.23
2022-12-31T01:54:16.119Z,7.88
2022-12-31T01:57:19.598Z,7.65
2022-12-31T02:00:22.652Z,7.38
2022-12-31T02:03:27.663Z,7.15
2022-12-31T02:06:38.164Z,7.03
2022-12-31T02:09:43.257Z,6.55
2022-12-31T02:12:46.360Z,6.97
2022-12-31T02:16:04.771Z,7.00
2022-12-31T02:19:33.856Z,6.82
2022-12-31T02:23:07.533Z,8.27
2022-12-31T02:26:36.018Z,7.75
2022-12-31T02:30:03.696Z,7.55
2022-12-31T02:33:18.024Z,7.45
2022-12-31T02:36:24.833Z,7.07
2022-12-31T02:39:29.218Z,8.23
2022-12-31T02:42:32.079Z,6.85
2022-12-31T02:45:40.123Z,6.70
2022-12-31T02:48:50.246Z,6.65
2022-12-31T02:52:01.486Z,6.68
2022-12-31T02:55:12.255Z,7.03
2022-12-31T02:58:43.967Z,6.00
2022-12-31T03:02:09.416Z,7.35
2022-12-31T03:05:14.998Z,6.38
2022-12-31T03:08:22.756Z,6.20
2022-12-31T03:11:39.531Z,7.05
2022-12-31T03:14:42.383Z,7.10
2022-12-31T03:17:47.559Z,7.35
2022-12-31T03:21:09.732Z,6.93
2022-12-31T03:24:29.917Z,6.57
2022-12-31T03:27:32.770Z,6.97
2022-12-31T03:30:37.710Z,6.30
2022-12-31T03:33:43.203Z,5.80
2022-12-31T03:36:46.012Z,8.45
2022-12-31T03:39:48.843Z,6.90
2022-12-31T03:42:51.761Z,6.97
2022-12-31T03:45:55.636Z,6.45
2022-12-31T03:48:59.823Z,5.65
2022-12-31T03:52:03.587Z,6.47
2022-12-31T03:55:07.654Z,6.68
2022-12-31T03:58:10.539Z,7.00
2022-12-31T04:01:13.434Z,5.55
2022-12-31T04:04:17.736Z,6.55
2022-12-31T04:07:20.562Z,6.05
2022-12-31T04:10:23.493Z,7.25
2022-12-31T04:13:26.356Z,5.68
2022-12-31T04:16:29.568Z,6.47
2022-12-31T04:19:33.812Z,6.43
2022-12-31T04:22:36.775Z,6.53
2022-12-31T04:25:39.656Z,6.50
2022-12-31T04:28:42.772Z,6.38
2022-12-31T04:31:45.649Z,6.63
2022-12-31T04:34:49.908Z,6.05
2022-12-31T04:37:52.764Z,5.25
2022-12-31T04:41:13.111Z,5.85
2022-12-31T04:44:16.238Z,6.15
2022-12-31T04:47:23.692Z,5.50
2022-12-31T04:50:28.252Z,6.70
2022-12-31T04:53:31.820Z,6.20
2022-12-31T04:56:36.629Z,5.70
2022-12-31T04:59:39.566Z,6.22
2022-12-31T05:02:42.616Z,6.45
2022-12-31T05:05:47.044Z,5.10
2022-12-31T05:08:51.670Z,5.30
2022-12-31T05:11:54.526Z,5.93
2022-12-31T05:14:57.489Z,5.50
2022-12-31T05:18:00.355Z,6.15
2022-12-31T05:21:05.020Z,5.50
2022-12-31T05:24:08.712Z,6.00
2022-12-31T05:27:11.544Z,5.05
2022-12-31T05:30:15.389Z,6.47
2022-12-31T05:33:18.662Z,5.95
2022-12-31T05:36:22.851Z,5.50
2022-12-31T05:39:25.700Z,5.50
2022-12-31T05:42:28.528Z,6.13
2022-12-31T05:45:31.571Z,4.93
2022-12-31T05:48:34.785Z,5.57
2022-12-31T05:51:39.058Z,5.85
2022-12-31T05:54:41.988Z,5.40
2022-12-31T05:57:45.213Z,5.85
2022-12-31T06:00:48.112Z,5.38
2022-12-31T06:03:51.133Z,4.82
2022-12-31T06:06:55.464Z,5.53
2022-12-31T06:09:58.323Z,5.72
2022-12-31T06:13:01.240Z,5.68
2022-12-31T06:16:07.060Z,5.10
2022-12-31T06:19:10.106Z,4.53
2022-12-31T06:22:14.280Z,5.13
2022-12-31T06:25:17.307Z,5.38
2022-12-31T06:28:20.780Z,4.50
2022-12-31T06:31:23.776Z,5.45
2022-12-31T06:34:26.614Z,5.65
2022-12-31T06:37:30.787Z,5.10
2022-12-31T06:40:33.718Z,5.90
2022-12-31T06:43:37.290Z,5.28
2022-12-31T06:46:40.133Z,5.50
2022-12-31T06:49:43.065Z,6.72
2022-12-31T06:52:47.491Z,5.72
2022-12-31T06:55:51.217Z,5.63
2022-12-31T06:58:54.567Z,5.22
2022-12-31T07:02:33.487Z,5.57
2022-12-31T07:05:43.233Z,5.45
2022-12-31T07:08:57.263Z,5.07
2022-12-31T07:12:05.760Z,5.10
2022-12-31T07:15:15.778Z,5.00
2022-12-31T07:18:32.009Z,5.43
2022-12-31T07:21:38.505Z,4.75
2022-12-31T07:24:43.366Z,5.13
2022-12-31T07:28:08.908Z,5.00
2022-12-31T07:31:18.321Z,5.63
2022-12-31T07:34:28.995Z,4.72
2022-12-31T07:37:40.656Z,4.93
2022-12-31T07:40:57.687Z,4.43
2022-12-31T07:44:08.767Z,4.43
2022-12-31T07:47:21.972Z,5.28
2022-12-31T07:50:25.615Z,5.18
2022-12-31T07:53:29.381Z,4.88
2022-12-31T07:56:34.230Z,6.05
2022-12-31T07:59:48.457Z,4.88
2022-12-31T08:03:15.155Z,5.18
2022-12-31T08:06:26.450Z,5.05
2022-12-31T08:09:42.743Z,5.38
2022-12-31T08:12:50.629Z,4.85
2022-12-31T08:15:54.139Z,5.78
2022-12-31T08:18:57.649Z,5.85
2022-12-31T08:22:25.969Z,5.47
2022-12-31T08:25:36.927Z,5.72
2022-12-31T08:28:56.173Z,5.03
2022-12-31T08:32:04.670Z,5.70
2022-12-31T08:35:19.822Z,5.75
2022-12-31T08:38:31.891Z,5.65
2022-12-31T08:41:43.089Z,5.07
2022-12-31T08:44:56.333Z,6.25
2022-12-31T08:48:03.198Z,5.47
2022-12-31T08:51:07.155Z,5.75
2022-12-31T08:54:12.095Z,4.80
2022-12-31T08:57:24.273Z,4.63
2022-12-31T09:00:29.955Z,5.72
2022-12-31T09:03:59.222Z,5.25
2022-12-31T09:07:04.216Z,4.55
2022-12-31T09:10:19.151Z,4.50
2022-12-31T09:13:30.670Z,5.18
2022-12-31T09:16:43.046Z,5.53
2022-12-31T09:19:46.134Z,6.00
2022-12-31T09:22:49.952Z,5.72
2022-12-31T09:26:00.572Z,5.47
2022-12-31T09:29:10.701Z,5.65
2022-12-31T09:32:25.628Z,5.28
2022-12-31T09:35:36.338Z,5.25
2022-12-31T09:38:45.794Z,5.28
2022-12-31T09:42:13.619Z,4.70
2022-12-31T09:45:55.396Z,5.97
2022-12-31T09:49:26.583Z,5.10
2022-12-31T09:52:44.295Z,5.65
2022-12-31T09:55:53.345Z,5.18
2022-12-31T09:59:03.837Z,5.15
2022-12-31T10:02:20.740Z,4.65
2022-12-31T10:05:47.142Z,5.05
2022-12-31T10:09:12.723Z,5.32
2022-12-31T10:12:54.626Z,6.00
2022-12-31T10:16:16.351Z,4.95
2022-12-31T10:19:45.767Z,4.80
2022-12-31T10:23:18.564Z,5.20
2022-12-31T10:26:38.728Z,5.55
2022-12-31T10:29:47.411Z,4.35
2022-12-31T10:33:01.457Z,4.95
2022-12-31T10:36:16.094Z,4.82
2022-12-31T10:39:28.058Z,5.25
2022-12-31T10:43:06.416Z,5.18
2022-12-31T10:46:41.187Z,4.75
2022-12-31T10:50:17.170Z,4.45
2022-12-31T10:53:45.443Z,5.22
2022-12-31T10:57:24.732Z,4.63
2022-12-31T11:00:31.902Z,4.93
2022-12-31T11:04:10.425Z,4.60
2022-12-31T11:07:44.431Z,4.55
2022-12-31T11:11:20.139Z,5.43
2022-12-31T11:15:02.790Z,5.65
2022-12-31T11:18:11.368Z,4.93
2022-12-31T11:21:28.406Z,4.80
2022-12-31T11:24:47.142Z,5.47
2022-12-31T11:28:09.352Z,5.00
2022-12-31T11:31:33.769Z,5.05
2022-12-31T11:34:56.898Z,4.15
2022-12-31T11:38:08.200Z,4.85
2022-12-31T11:41:17.601Z,4.50
2022-12-31T11:44:35.578Z,5.53
2022-12-31T11:48:29.755Z,5.50
2022-12-31T11:51:44.266Z,4.97
2022-12-31T11:55:09.761Z,5.40
2022-12-31T11:58:15.916Z,4.88
2022-12-31T12:01:23.351Z,5.40
2022-12-31T12:04:27.800Z,5.85
2022-12-31T12:07:32.761Z,4.65
2022-12-31T12:10:41.951Z,5.85
2022-12-31T12:13:44.835Z,4.70
2022-12-31T12:16:47.898Z,5.20
2022-12-31T12:19:56.664Z,4.68
2022-12-31T12:23:03.897Z,5.20
2022-12-31T12:26:07.024Z,5.45
2022-12-31T12:29:11.710Z,5.68
2022-12-31T12:32:18.106Z,5.63
2022-12-31T12:35:26.910Z,5.00
2022-12-31T12:38:30.202Z,5.03
2022-12-31T12:41:33.359Z,5.28
2022-12-31T12:44:36.615Z,5.07
2022-12-31T12:47:43.311Z,6.10
2022-12-31T12:50:49.880Z,4.72
2022-12-31T12:54:01.508Z,4.97
2022-12-31T12:57:17.884Z,6.63
2022-12-31T13:00:22.590Z,5.78
2022-12-31T13:04:31.843Z,5.85
2022-12-31T13:07:26.927Z,5.15
2022-12-31T13:10:49.725Z,5.75
2022-12-31T13:14:03.972Z,5.25
2022-12-31T13:17:27.663Z,4.72
2022-12-31T13:20:37.683Z,5.38
2022-12-31T13:23:49.194Z,5.28
2022-12-31T13:26:58.471Z,4.88
2022-12-31T13:30:03.928Z,4.65
2022-12-31T13:33:15.668Z,5.22
2022-12-31T13:36:21.775Z,3.90
2022-12-31T13:39:28.347Z,5.20
2022-12-31T13:42:40.312Z,4.63
2022-12-31T13:45:46.531Z,5.00
2022-12-31T13:48:53.769Z,4.82
2022-12-31T13:52:03.630Z,5.05
2022-12-31T13:55:15.115Z,4.95
2022-12-31T13:58:24.241Z,4.97
2022-12-31T14:01:34.219Z,4.47
2022-12-31T14:04:41.449Z,4.82
2022-12-31T14:07:50.935Z,5.05
2022-12-31T14:11:05.152Z,5.22
2022-12-31T14:14:16.265Z,5.45
2022-12-31T14:17:27.876Z,4.60
2022-12-31T14:20:43.144Z,4.55
2022-12-31T14:23:54.223Z,4.57
2022-12-31T14:27:03.718Z,4.68
2022-12-31T14:30:14.508Z,4.97
2022-12-31T14:33:34.154Z,4.10
2022-12-31T14:36:48.530Z,4.50
2022-12-31T14:39:57.623Z,4.22
2022-12-31T14:43:14.335Z,4.80
2022-12-31T14:46:26.015Z,4.53
2022-12-31T14:49:43.047Z,4.15
2022-12-31T14:52:51.687Z,4.90
2022-12-31T14:55:59.188Z,3.80
2022-12-31T14:59:04.701Z,4.70
2022-12-31T15:02:27.358Z,5.07
2022-12-31T15:05:33.044Z,5.18
2022-12-31T15:08:47.568Z,4.72
2022-12-31T15:12:09.578Z,4.35
2022-12-31T15:15:33.496Z,4.95
2022-12-31T15:18:51.050Z,5.88
2022-12-31T15:22:03.754Z,4.95
2022-12-31T15:25:22.957Z,4.70
2022-12-31T15:28:37.329Z,5.05
2022-12-31T15:31:48.230Z,5.18
2022-12-31T15:35:02.073Z,5.60
2022-12-31T15:38:19.677Z,5.10
2022-12-31T15:41:29.223Z,5.13
2022-12-31T15:44:43.116Z,5.45
2022-12-31T15:47:52.503Z,5.43
2022-12-31T15:50:59.748Z,7.03
2022-12-31T15:54:05.375Z,5.10
2022-12-31T15:57:15.509Z,5.45
2022-12-31T16:00:20.235Z,7.30
2022-12-31T16:03:26.838Z,6.53
2022-12-31T16:06:31.776Z,5.78
2022-12-31T16:09:36.364Z,5.55
2022-12-31T16:12:44.547Z,5.20
2022-12-31T16:15:51.009Z,5.53
2022-12-31T16:18:56.811Z,5.80
2022-12-31T16:22:03.562Z,5.85
2022-12-31T16:25:30.174Z,5.35
2022-12-31T16:28:32.902Z,5.38
2022-12-31T16:31:35.751Z,5.05
2022-12-31T16:34:39.950Z,4.95
2022-12-31T16:37:42.811Z,5.00
2022-12-31T16:41:07.807Z,5.88
2022-12-31T16:44:26.476Z,4.43
2022-12-31T16:47:34.409Z,5.45
2022-12-31T16:50:38.747Z,5.72
2022-12-31T16:53:43.000Z,4.63
2022-12-31T16:56:46.099Z,5.93
2022-12-31T16:59:52.627Z,5.05
2022-12-31T17:03:09.017Z,5.28
2022-12-31T17:06:17.991Z,5.25
2022-12-31T17:09:23.528Z,5.72
2022-12-31T17:12:28.115Z,5.93
2022-12-31T17:15:40.848Z,4.85
2022-12-31T17:18:46.123Z,4.55
2022-12-31T17:21:50.416Z,5.22
2022-12-31T17:25:00.087Z,6.28
2022-12-31T17:28:05.304Z,5.80
2022-12-31T17:31:27.062Z,4.70
2022-12-31T17:34:33.763Z,4.22
2022-12-31T17:37:38.038Z,5.03
2022-12-31T17:40:50.828Z,4.63
2022-12-31T17:43:58.307Z,4.85
2022-12-31T17:47:03.450Z,4.82
2022-12-31T17:50:17.522Z,5.20
2022-12-31T17:53:22.129Z,4.65
2022-12-31T17:56:25.005Z,4.97
2022-12-31T17:59:30.556Z,4.78
2022-12-31T18:02:33.458Z,4.68
2022-12-31T18:05:36.443Z,5.03
2022-12-31T18:08:40.807Z,5.00
2022-12-31T18:11:44.083Z,4.10
2022-12-31T18:14:46.941Z,5.32
2022-12-31T18:17:49.872Z,5.00
2022-12-31T18:20:54.987Z,5.38
2022-12-31T18:27:02.415Z,4.45
2022-12-31T18:30:07.909Z,4.00
2022-12-31T18:33:12.769Z,4.10
2022-12-31T18:36:18.222Z,5.03
2022-12-31T18:39:22.456Z,4.50
2022-12-31T18:42:27.760Z,4.68
2022-12-31T18:45:30.612Z,4.90
2022-12-31T18:48:33.487Z,5.25
2022-12-31T18:51:36.839Z,5.57
2022-12-31T18:54:41.132Z,4.88
2022-12-31T18:57:43.996Z,5.20
2022-12-31T19:00:47.633Z,4.22
2022-12-31T19:03:50.514Z,4.43
2022-12-31T19:06:53.379Z,4.38
2022-12-31T19:09:58.583Z,4.72
2022-12-31T19:13:01.839Z,5.20
2022-12-31T19:16:04.837Z,4.40
2022-12-31T19:19:08.819Z,4.40
2022-12-31T19:22:16.078Z,4.55
2022-12-31T19:25:22.867Z,5.70
2022-12-31T19:28:27.821Z,3.88
2022-12-31T19:31:30.676Z,5.95
2022-12-31T19:34:33.589Z,4.32
2022-12-31T19:37:36.509Z,4.50
2022-12-31T19:40:41.371Z,3.95
2022-12-31T19:43:44.311Z,4.15
2022-12-31T19:46:49.299Z,4.93
2022-12-31T19:49:52.217Z,4.70
2022-12-31T19:52:56.494Z,4.10
2022-12-31T19:56:00.828Z,4.07
2022-12-31T19:59:05.641Z,5.18
2022-12-31T20:02:08.590Z,3.88
2022-12-31T20:05:12.173Z,4.22
2022-12-31T20:08:17.013Z,4.30
2022-12-31T20:11:25.296Z,4.32
2022-12-31T20:14:28.149Z,5.00
2022-12-31T20:17:31.019Z,4.03
2022-12-31T20:20:33.831Z,4.38
2022-12-31T20:23:36.746Z,4.07
2022-12-31T20:26:41.292Z,4.07
2022-12-31T20:29:44.080Z,4.82
2022-12-31T20:32:46.917Z,4.70
2022-12-31T20:35:49.761Z,4.82
2022-12-31T20:38:52.641Z,5.40
2022-12-31T20:41:56.848Z,4.30
2022-12-31T20:44:59.677Z,3.80
2022-12-31T20:48:02.471Z,3.60
2022-12-31T20:51:05.429Z,4.70
2022-12-31T20:54:10.582Z,4.18
2022-12-31T20:57:14.780Z,3.90
2022-12-31T21:00:18.508Z,3.70
2022-12-31T21:04:02.236Z,4.93
2022-12-31T21:06:44.104Z,3.97
2022-12-31T21:09:47.025Z,4.50
2022-12-31T21:12:53.439Z,4.18
2022-12-31T21:15:56.427Z,3.70
2022-12-31T21:18:59.234Z,4.43
2022-12-31T21:22:02.099Z,3.42
2022-12-31T21:25:05.656Z,3.60
2022-12-31T21:28:10.045Z,3.60
2022-12-31T21:31:14.457Z,4.47
2022-12-31T21:34:17.364Z,3.95
2022-12-31T21:37:20.211Z,4.40
2022-12-31T21:40:23.013Z,3.83
2022-12-31T21:43:27.689Z,3.80
2022-12-31T21:46:30.632Z,4.20
2022-12-31T21:49:33.448Z,3.45
2022-12-31T21:52:36.307Z,3.90
2022-12-31T21:55:57.320Z,3.38
2022-12-31T21:59:19.213Z,3.50
2022-12-31T22:02:40.332Z,4.15
2022-12-31T22:05:48.773Z,3.42
2022-12-31T22:08:53.433Z,4.18
2022-12-31T22:11:56.366Z,3.47
2022-12-31T22:15:15.756Z,3.63
2022-12-31T22:18:18.988Z,3.70
2022-12-31T22:21:25.425Z,3.65
2022-12-31T22:24:28.281Z,4.20
2022-12-31T22:27:31.121Z,3.80
2022-12-31T22:30:35.925Z,4.18
2022-12-31T22:33:38.855Z,3.20
2022-12-31T22:36:41.738Z,5.15
2022-12-31T22:39:45.122Z,3.72
2022-12-31T22:42:48.057Z,3.75
2022-12-31T22:45:52.350Z,4.00
2022-12-31T22:48:58.734Z,3.40
2022-12-31T22:52:04.347Z,4.05
2022-12-31T22:55:10.271Z,3.65
2022-12-31T22:58:13.033Z,4.00
2022-12-31T23:01:19.445Z,4.05
2022-12-31T23:04:22.367Z,3.97
2022-12-31T23:07:25.383Z,3.50
2022-12-31T23:10:45.719Z,3.83
2022-12-31T23:14:06.094Z,3.88
2022-12-31T23:17:32.782Z,3.63
2022-12-31T23:20:53.211Z,4.25
2022-12-31T23:23:56.067Z,3.72
2022-12-31T23:26:59.269Z,3.97
2022-12-31T23:30:02.169Z,4.32
2022-12-31T23:33:06.727Z,3.72
2022-12-31T23:36:10.073Z,3.80
2022-12-31T23:39:13.505Z,3.40
2022-12-31T23:42:16.351Z,3.30
2022-12-31T23:45:19.257Z,4.32
2022-12-31T23:48:23.474Z,4.22
2022-12-31T23:51:26.360Z,3.85
2022-12-31T23:54:29.790Z,4.22
2022-12-31T23:57:32.862Z,3.72
